Tampa, Florida
Traffic Map
Current Weather Conditions
Tampa, Florida
Overcast
Overcast
91°
Feels Like: 94°
Wind Chill: 91° Ceiling: 34000
Heat Index: 94° Visibility: 10mi
Dew Point: 67° Wind: 6mph
Humidity: 45% Direction: 70° (ENE)
Pressure: 30.06in Gusts: 0mph
Raw Report DataKTPA 172353Z 07005KT 10SM FEW060TCU FEW100 SCT230 OVC340 33/19 A3006 RMK AO2 SLP178 CB DSNT N TCU ALQDS 60000 T03280194 10350 20322 55004
Traffic Incident Summary
Active as of:
Severity:
Category:
InformationThere was an issue retrieving the traffic information for this location. Please try a different location or try again shortly.
Advertisements